sensor_id;sensor_type;location;lat;lon;timestamp;temperature;humidity
15574;DHT22;7888;46.748;8.102;2022-08-01T14:09:35;37.00;29.50
15574;DHT22;7888;46.748;8.102;2022-08-01T14:12:01;37.10;29.10
15574;DHT22;7888;46.748;8.102;2022-08-01T14:14:27;37.10;28.80
15574;DHT22;7888;46.748;8.102;2022-08-01T14:16:53;37.10;29.20
15574;DHT22;7888;46.748;8.102;2022-08-01T14:19:19;37.10;29.40
15574;DHT22;7888;46.748;8.102;2022-08-01T14:21:45;37.10;29.10
15574;DHT22;7888;46.748;8.102;2022-08-01T14:24:11;37.20;28.90
15574;DHT22;7888;46.748;8.102;2022-08-01T14:26:36;37.20;28.90
15574;DHT22;7888;46.748;8.102;2022-08-01T14:29:02;37.30;28.40
15574;DHT22;7888;46.748;8.102;2022-08-01T14:31:28;37.40;28.40
15574;DHT22;7888;46.748;8.102;2022-08-01T14:33:55;37.40;28.30
15574;DHT22;7888;46.748;8.102;2022-08-01T14:36:21;37.50;28.70
15574;DHT22;7888;46.748;8.102;2022-08-01T14:38:47;37.50;28.10
15574;DHT22;7888;46.748;8.102;2022-08-01T14:41:14;37.50;27.80
15574;DHT22;7888;46.748;8.102;2022-08-01T14:43:40;37.50;27.80
15574;DHT22;7888;46.748;8.102;2022-08-01T14:46:06;37.50;27.70
15574;DHT22;7888;46.748;8.102;2022-08-01T14:48:33;37.50;27.80
15574;DHT22;7888;46.748;8.102;2022-08-01T14:50:59;37.50;28.10
15574;DHT22;7888;46.748;8.102;2022-08-01T14:53:28;37.50;27.90
15574;DHT22;7888;46.748;8.102;2022-08-01T14:55:54;37.50;27.70
15574;DHT22;7888;46.748;8.102;2022-08-01T14:58:20;37.60;27.90
15574;DHT22;7888;46.748;8.102;2022-08-01T15:00:46;37.60;27.80
15574;DHT22;7888;46.748;8.102;2022-08-01T15:03:12;37.60;27.60
15574;DHT22;7888;46.748;8.102;2022-08-01T15:05:38;37.50;27.30
15574;DHT22;7888;46.748;8.102;2022-08-01T15:08:05;37.40;27.10
15574;DHT22;7888;46.748;8.102;2022-08-01T15:10:31;37.40;27.20
15574;DHT22;7888;46.748;8.102;2022-08-01T15:12:58;37.30;27.40
15574;DHT22;7888;46.748;8.102;2022-08-01T15:15:26;37.20;27.30
15574;DHT22;7888;46.748;8.102;2022-08-01T15:17:52;37.20;27.40
15574;DHT22;7888;46.748;8.102;2022-08-01T15:20:18;37.20;27.70
15574;DHT22;7888;46.748;8.102;2022-08-01T15:22:44;37.10;27.60
15574;DHT22;7888;46.748;8.102;2022-08-01T15:25:10;37.00;27.40
15574;DHT22;7888;46.748;8.102;2022-08-01T15:27:36;36.90;27.10
15574;DHT22;7888;46.748;8.102;2022-08-01T15:30:03;36.90;27.30
15574;DHT22;7888;46.748;8.102;2022-08-01T15:32:29;36.90;27.40
15574;DHT22;7888;46.748;8.102;2022-08-01T15:34:55;36.90;27.60
15574;DHT22;7888;46.748;8.102;2022-08-01T15:37:21;36.90;27.50
15574;DHT22;7888;46.748;8.102;2022-08-01T15:39:48;36.90;26.90
15574;DHT22;7888;46.748;8.102;2022-08-01T15:42:15;37.00;26.60
15574;DHT22;7888;46.748;8.102;2022-08-01T15:44:43;37.00;26.40
15574;DHT22;7888;46.748;8.102;2022-08-01T15:47:09;37.00;26.50
15574;DHT22;7888;46.748;8.102;2022-08-01T15:49:36;37.10;26.90
15574;DHT22;7888;46.748;8.102;2022-08-01T15:52:06;37.10;26.70
15574;DHT22;7888;46.748;8.102;2022-08-01T15:54:33;37.10;26.60
15574;DHT22;7888;46.748;8.102;2022-08-01T15:57:00;37.00;26.60
15574;DHT22;7888;46.748;8.102;2022-08-01T15:59:26;37.00;26.70
15574;DHT22;7888;46.748;8.102;2022-08-01T16:01:52;37.00;27.00
15574;DHT22;7888;46.748;8.102;2022-08-01T16:04:18;36.90;26.70
15574;DHT22;7888;46.748;8.102;2022-08-01T16:06:45;36.90;26.80
15574;DHT22;7888;46.748;8.102;2022-08-01T16:09:12;36.80;26.80
15574;DHT22;7888;46.748;8.102;2022-08-01T16:11:38;36.70;26.70
15574;DHT22;7888;46.748;8.102;2022-08-01T16:14:04;36.60;26.70
15574;DHT22;7888;46.748;8.102;2022-08-01T16:16:31;36.60;27.50
15574;DHT22;7888;46.748;8.102;2022-08-01T16:18:56;36.50;28.00
15574;DHT22;7888;46.748;8.102;2022-08-01T16:21:22;36.40;28.10
15574;DHT22;7888;46.748;8.102;2022-08-01T16:23:50;36.30;27.90
15574;DHT22;7888;46.748;8.102;2022-08-01T16:26:19;36.20;27.80
15574;DHT22;7888;46.748;8.102;2022-08-01T16:28:45;36.10;27.50
15574;DHT22;7888;46.748;8.102;2022-08-01T16:31:13;36.00;27.40
15574;DHT22;7888;46.748;8.102;2022-08-01T16:33:40;35.90;27.50
15574;DHT22;7888;46.748;8.102;2022-08-01T16:36:06;35.90;27.40
15574;DHT22;7888;46.748;8.102;2022-08-01T16:38:34;35.80;27.40
15574;DHT22;7888;46.748;8.102;2022-08-01T16:41:00;35.70;27.80
15574;DHT22;7888;46.748;8.102;2022-08-01T16:43:25;35.60;28.70
15574;DHT22;7888;46.748;8.102;2022-08-01T16:45:52;35.50;28.90
15574;DHT22;7888;46.748;8.102;2022-08-01T16:48:18;35.50;29.00
15574;DHT22;7888;46.748;8.102;2022-08-01T16:50:46;35.30;29.20
15574;DHT22;7888;46.748;8.102;2022-08-01T16:53:18;35.20;29.10
15574;DHT22;7888;46.748;8.102;2022-08-01T16:55:45;35.10;29.20
15574;DHT22;7888;46.748;8.102;2022-08-01T16:58:16;35.00;29.90
15574;DHT22;7888;46.748;8.102;2022-08-01T17:00:43;34.80;29.40
15574;DHT22;7888;46.748;8.102;2022-08-01T17:03:12;34.80;29.90
15574;DHT22;7888;46.748;8.102;2022-08-01T17:05:39;34.60;29.90
15574;DHT22;7888;46.748;8.102;2022-08-01T17:08:05;34.60;30.30
15574;DHT22;7888;46.748;8.102;2022-08-01T17:10:33;34.50;30.90
15574;DHT22;7888;46.748;8.102;2022-08-01T17:13:00;34.40;31.00
15574;DHT22;7888;46.748;8.102;2022-08-01T17:15:26;34.30;31.60
15574;DHT22;7888;46.748;8.102;2022-08-01T17:17:53;34.20;32.30
15574;DHT22;7888;46.748;8.102;2022-08-01T17:20:21;34.10;32.70
15574;DHT22;7888;46.748;8.102;2022-08-01T17:22:48;34.00;32.60
15574;DHT22;7888;46.748;8.102;2022-08-01T17:25:14;33.90;31.80
15574;DHT22;7888;46.748;8.102;2022-08-01T17:27:42;33.90;31.90
15574;DHT22;7888;46.748;8.102;2022-08-01T17:30:08;33.80;32.60
15574;DHT22;7888;46.748;8.102;2022-08-01T17:32:35;33.70;33.00
15574;DHT22;7888;46.748;8.102;2022-08-01T17:35:01;33.60;33.30
15574;DHT22;7888;46.748;8.102;2022-08-01T17:37:28;33.60;33.50
15574;DHT22;7888;46.748;8.102;2022-08-01T17:39:53;33.50;33.50
15574;DHT22;7888;46.748;8.102;2022-08-01T17:42:19;33.50;33.80
15574;DHT22;7888;46.748;8.102;2022-08-01T17:44:45;33.40;33.90
15574;DHT22;7888;46.748;8.102;2022-08-01T17:47:11;33.30;34.00
15574;DHT22;7888;46.748;8.102;2022-08-01T17:49:37;33.20;34.10
15574;DHT22;7888;46.748;8.102;2022-08-01T17:52:04;33.10;34.10
15574;DHT22;7888;46.748;8.102;2022-08-01T17:54:29;33.10;33.70
15574;DHT22;7888;46.748;8.102;2022-08-01T17:56:55;33.00;33.40
15574;DHT22;7888;46.748;8.102;2022-08-01T17:59:21;32.90;33.70
15574;DHT22;7888;46.748;8.102;2022-08-01T18:01:47;32.80;33.80
15574;DHT22;7888;46.748;8.102;2022-08-01T18:04:13;32.70;33.80
15574;DHT22;7888;46.748;8.102;2022-08-01T18:06:38;32.60;33.40
15574;DHT22;7888;46.748;8.102;2022-08-01T18:09:04;32.60;33.50
15574;DHT22;7888;46.748;8.102;2022-08-01T18:11:30;32.50;33.60
15574;DHT22;7888;46.748;8.102;2022-08-01T18:13:56;32.40;33.70
15574;DHT22;7888;46.748;8.102;2022-08-01T18:16:22;32.40;33.80
15574;DHT22;7888;46.748;8.102;2022-08-01T18:18:48;32.30;33.60
15574;DHT22;7888;46.748;8.102;2022-08-01T18:21:14;32.20;33.60
15574;DHT22;7888;46.748;8.102;2022-08-01T18:23:40;32.10;33.80
15574;DHT22;7888;46.748;8.102;2022-08-01T18:26:06;32.10;34.00
15574;DHT22;7888;46.748;8.102;2022-08-01T18:28:33;32.00;34.10
15574;DHT22;7888;46.748;8.102;2022-08-01T18:31:05;31.90;34.20
15574;DHT22;7888;46.748;8.102;2022-08-01T18:33:32;31.90;34.50
15574;DHT22;7888;46.748;8.102;2022-08-01T18:35:58;31.90;34.20
15574;DHT22;7888;46.748;8.102;2022-08-01T18:38:25;31.80;34.30
15574;DHT22;7888;46.748;8.102;2022-08-01T18:40:51;31.80;34.20
15574;DHT22;7888;46.748;8.102;2022-08-01T18:43:17;31.70;34.30
15574;DHT22;7888;46.748;8.102;2022-08-01T18:45:43;31.60;34.00
15574;DHT22;7888;46.748;8.102;2022-08-01T18:48:10;31.50;33.90
15574;DHT22;7888;46.748;8.102;2022-08-01T18:50:36;31.50;34.10
15574;DHT22;7888;46.748;8.102;2022-08-01T18:53:03;31.30;34.10
15574;DHT22;7888;46.748;8.102;2022-08-01T18:55:29;31.30;33.50
15574;DHT22;7888;46.748;8.102;2022-08-01T18:57:55;31.20;33.10
15574;DHT22;7888;46.748;8.102;2022-08-01T19:00:21;31.20;33.00
15574;DHT22;7888;46.748;8.102;2022-08-01T19:02:47;31.10;32.60
15574;DHT22;7888;46.748;8.102;2022-08-01T19:05:13;31.10;32.60
15574;DHT22;7888;46.748;8.102;2022-08-01T19:07:39;31.00;32.30
15574;DHT22;7888;46.748;8.102;2022-08-01T19:10:05;31.00;32.40
15574;DHT22;7888;46.748;8.102;2022-08-01T19:12:32;30.90;32.40
15574;DHT22;7888;46.748;8.102;2022-08-01T19:14:59;30.90;33.10
15574;DHT22;7888;46.748;8.102;2022-08-01T19:17:24;30.90;32.60
15574;DHT22;7888;46.748;8.102;2022-08-01T19:19:54;30.80;32.60
15574;DHT22;7888;46.748;8.102;2022-08-01T19:22:20;30.80;32.60
15574;DHT22;7888;46.748;8.102;2022-08-01T19:24:46;30.80;33.00
15574;DHT22;7888;46.748;8.102;2022-08-01T19:27:14;30.70;33.20
15574;DHT22;7888;46.748;8.102;2022-08-01T19:29:50;30.60;33.50
15574;DHT22;7888;46.748;8.102;2022-08-01T19:32:19;30.60;33.70
15574;DHT22;7888;46.748;8.102;2022-08-01T19:35:04;30.50;33.80
15574;DHT22;7888;46.748;8.102;2022-08-01T19:37:32;30.50;34.20
15574;DHT22;7888;46.748;8.102;2022-08-01T19:39:58;30.50;34.00
15574;DHT22;7888;46.748;8.102;2022-08-01T19:42:26;30.40;34.10
15574;DHT22;7888;46.748;8.102;2022-08-01T19:44:53;30.30;34.20
15574;DHT22;7888;46.748;8.102;2022-08-01T19:47:19;30.20;34.20
15574;DHT22;7888;46.748;8.102;2022-08-01T19:49:46;30.20;34.40
15574;DHT22;7888;46.748;8.102;2022-08-01T19:52:14;30.10;34.70
15574;DHT22;7888;46.748;8.102;2022-08-01T19:54:44;30.00;34.90
15574;DHT22;7888;46.748;8.102;2022-08-01T19:57:13;30.00;35.00
15574;DHT22;7888;46.748;8.102;2022-08-01T19:59:40;29.90;35.00
15574;DHT22;7888;46.748;8.102;2022-08-01T20:02:09;29.80;35.10
15574;DHT22;7888;46.748;8.102;2022-08-01T20:04:41;29.80;35.40
15574;DHT22;7888;46.748;8.102;2022-08-01T20:07:07;29.70;35.20
15574;DHT22;7888;46.748;8.102;2022-08-01T20:09:34;29.70;35.50
15574;DHT22;7888;46.748;8.102;2022-08-01T20:12:03;29.70;35.60
15574;DHT22;7888;46.748;8.102;2022-08-01T20:14:30;29.60;35.50
15574;DHT22;7888;46.748;8.102;2022-08-01T20:16:56;29.60;35.70
15574;DHT22;7888;46.748;8.102;2022-08-01T20:19:23;29.50;35.70
15574;DHT22;7888;46.748;8.102;2022-08-01T20:22:03;29.50;35.90
15574;DHT22;7888;46.748;8.102;2022-08-01T20:24:38;29.40;36.00
15574;DHT22;7888;46.748;8.102;2022-08-01T20:27:07;29.40;36.00
15574;DHT22;7888;46.748;8.102;2022-08-01T20:29:35;29.30;35.90
15574;DHT22;7888;46.748;8.102;2022-08-01T20:32:02;29.30;36.10
15574;DHT22;7888;46.748;8.102;2022-08-01T20:34:28;29.20;36.20
15574;DHT22;7888;46.748;8.102;2022-08-01T20:37:02;29.20;36.40
15574;DHT22;7888;46.748;8.102;2022-08-01T20:39:30;29.10;36.40
15574;DHT22;7888;46.748;8.102;2022-08-01T20:41:58;29.10;36.40
15574;DHT22;7888;46.748;8.102;2022-08-01T20:44:28;29.00;36.40
15574;DHT22;7888;46.748;8.102;2022-08-01T20:46:57;29.00;36.40
15574;DHT22;7888;46.748;8.102;2022-08-01T20:49:25;29.00;36.50
15574;DHT22;7888;46.748;8.102;2022-08-01T20:51:51;28.90;36.50
15574;DHT22;7888;46.748;8.102;2022-08-01T20:54:18;28.90;36.80
15574;DHT22;7888;46.748;8.102;2022-08-01T20:59:49;28.80;37.10
15574;DHT22;7888;46.748;8.102;2022-08-01T21:05:31;28.70;37.20
15574;DHT22;7888;46.748;8.102;2022-08-01T21:08:13;28.60;37.20
15574;DHT22;7888;46.748;8.102;2022-08-01T21:10:48;28.60;37.60
15574;DHT22;7888;46.748;8.102;2022-08-01T21:13:46;28.50;37.50
15574;DHT22;7888;46.748;8.102;2022-08-01T21:16:14;28.50;37.70
15574;DHT22;7888;46.748;8.102;2022-08-01T21:18:54;28.40;37.60
15574;DHT22;7888;46.748;8.102;2022-08-01T21:21:24;28.40;38.00
15574;DHT22;7888;46.748;8.102;2022-08-01T21:23:59;28.30;37.90
15574;DHT22;7888;46.748;8.102;2022-08-01T21:26:33;28.30;38.00
15574;DHT22;7888;46.748;8.102;2022-08-01T21:29:04;28.20;38.10
15574;DHT22;7888;46.748;8.102;2022-08-01T21:31:34;28.20;38.50
15574;DHT22;7888;46.748;8.102;2022-08-01T21:34:03;28.20;38.60
15574;DHT22;7888;46.748;8.102;2022-08-01T21:36:30;28.20;38.60
15574;DHT22;7888;46.748;8.102;2022-08-01T21:38:58;28.10;38.70
15574;DHT22;7888;46.748;8.102;2022-08-01T21:41:26;28.10;38.80
15574;DHT22;7888;46.748;8.102;2022-08-01T21:43:58;28.10;38.50
15574;DHT22;7888;46.748;8.102;2022-08-01T21:46:27;28.10;38.70
15574;DHT22;7888;46.748;8.102;2022-08-01T21:48:56;28.00;38.60
15574;DHT22;7888;46.748;8.102;2022-08-01T21:51:36;28.00;38.70
15574;DHT22;7888;46.748;8.102;2022-08-01T21:57:21;28.00;38.60
15574;DHT22;7888;46.748;8.102;2022-08-01T22:00:15;27.90;39.30
15574;DHT22;7888;46.748;8.102;2022-08-01T22:02:53;27.90;38.50
15574;DHT22;7888;46.748;8.102;2022-08-01T22:05:26;27.90;38.60
15574;DHT22;7888;46.748;8.102;2022-08-01T22:08:01;27.90;38.80
15574;DHT22;7888;46.748;8.102;2022-08-01T22:10:29;27.90;39.10
15574;DHT22;7888;46.748;8.102;2022-08-01T22:12:56;27.90;39.00
15574;DHT22;7888;46.748;8.102;2022-08-01T22:15:28;27.90;38.70
15574;DHT22;7888;46.748;8.102;2022-08-01T22:17:57;27.80;38.40
15574;DHT22;7888;46.748;8.102;2022-08-01T22:20:25;27.80;38.30
15574;DHT22;7888;46.748;8.102;2022-08-01T22:22:53;27.80;38.60
15574;DHT22;7888;46.748;8.102;2022-08-01T22:25:21;27.80;38.40
15574;DHT22;7888;46.748;8.102;2022-08-01T22:27:49;27.80;38.40
15574;DHT22;7888;46.748;8.102;2022-08-01T22:30:16;27.70;38.30
15574;DHT22;7888;46.748;8.102;2022-08-01T22:32:44;27.70;38.40
15574;DHT22;7888;46.748;8.102;2022-08-01T22:35:15;27.70;38.50
15574;DHT22;7888;46.748;8.102;2022-08-01T22:37:41;27.70;38.60
15574;DHT22;7888;46.748;8.102;2022-08-01T22:40:12;27.70;38.40
15574;DHT22;7888;46.748;8.102;2022-08-01T22:42:49;27.60;39.20
15574;DHT22;7888;46.748;8.102;2022-08-01T22:45:27;27.60;38.70
15574;DHT22;7888;46.748;8.102;2022-08-01T22:48:30;27.60;38.90
15574;DHT22;7888;46.748;8.102;2022-08-01T22:51:39;27.50;38.60
15574;DHT22;7888;46.748;8.102;2022-08-01T22:54:13;27.50;38.40
15574;DHT22;7888;46.748;8.102;2022-08-01T22:56:46;27.40;38.70
15574;DHT22;7888;46.748;8.102;2022-08-01T22:59:19;27.40;39.10
15574;DHT22;7888;46.748;8.102;2022-08-01T23:01:49;27.40;39.20
15574;DHT22;7888;46.748;8.102;2022-08-01T23:07:32;27.20;39.70
15574;DHT22;7888;46.748;8.102;2022-08-01T23:10:02;27.20;39.80
15574;DHT22;7888;46.748;8.102;2022-08-01T23:12:30;27.10;39.80
15574;DHT22;7888;46.748;8.102;2022-08-01T23:14:57;27.10;39.70
15574;DHT22;7888;46.748;8.102;2022-08-01T23:17:26;27.00;40.00
15574;DHT22;7888;46.748;8.102;2022-08-01T23:19:59;26.90;40.20
15574;DHT22;7888;46.748;8.102;2022-08-01T23:22:31;26.90;40.60
15574;DHT22;7888;46.748;8.102;2022-08-01T23:25:05;26.90;40.60
15574;DHT22;7888;46.748;8.102;2022-08-01T23:27:43;26.80;41.10
15574;DHT22;7888;46.748;8.102;2022-08-01T23:30:11;26.80;41.20
15574;DHT22;7888;46.748;8.102;2022-08-01T23:32:38;26.70;40.80
15574;DHT22;7888;46.748;8.102;2022-08-01T23:35:04;26.70;41.00
15574;DHT22;7888;46.748;8.102;2022-08-01T23:37:31;26.70;41.20
15574;DHT22;7888;46.748;8.102;2022-08-01T23:39:57;26.60;41.50
15574;DHT22;7888;46.748;8.102;2022-08-01T23:42:23;26.60;41.50
15574;DHT22;7888;46.748;8.102;2022-08-01T23:44:49;26.60;41.50
15574;DHT22;7888;46.748;8.102;2022-08-01T23:47:15;26.50;41.50
15574;DHT22;7888;46.748;8.102;2022-08-01T23:49:41;26.50;41.80
15574;DHT22;7888;46.748;8.102;2022-08-01T23:52:07;26.40;41.90
15574;DHT22;7888;46.748;8.102;2022-08-01T23:54:33;26.40;42.20
15574;DHT22;7888;46.748;8.102;2022-08-01T23:56:59;26.30;41.90
15574;DHT22;7888;46.748;8.102;2022-08-01T23:59:26;26.30;42.20
